sensor_id;sensor_type;location;lat;lon;timestamp;pressure;altitude;pressure_sealevel;temperature;humidity
15750;BME280;7976;52.526;13.326;2023-04-01T00:01:45;99237.44;;;10.79;100.00
15750;BME280;7976;52.526;13.326;2023-04-01T00:04:12;99216.50;;;10.79;100.00
15750;BME280;7976;52.526;13.326;2023-04-01T00:06:39;99229.69;;;10.77;100.00
15750;BME280;7976;52.526;13.326;2023-04-01T00:09:06;99227.94;;;10.78;100.00
15750;BME280;7976;52.526;13.326;2023-04-01T00:11:33;99227.09;;;10.77;100.00
15750;BME280;7976;52.526;13.326;2023-04-01T00:14:00;99225.31;;;10.78;100.00
15750;BME280;7976;52.526;13.326;2023-04-01T00:16:29;99229.69;;;10.77;100.00
15750;BME280;7976;52.526;13.326;2023-04-01T00:18:56;99221.94;;;10.76;100.00
15750;BME280;7976;52.526;13.326;2023-04-01T00:21:24;99221.09;;;10.75;100.00
15750;BME280;7976;52.526;13.326;2023-04-01T00:23:51;99227.72;;;10.81;100.00
15750;BME280;7976;52.526;13.326;2023-04-01T00:26:18;99228.59;;;10.81;100.00
15750;BME280;7976;52.526;13.326;2023-04-01T00:28:47;99231.31;;;10.80;100.00
15750;BME280;7976;52.526;13.326;2023-04-01T00:31:15;99232.22;;;10.79;100.00
15750;BME280;7976;52.526;13.326;2023-04-01T00:33:43;99231.66;;;10.74;100.00
15750;BME280;7976;52.526;13.326;2023-04-01T00:36:12;99215.31;;;10.70;100.00
15750;BME280;7976;52.526;13.326;2023-04-01T00:38:40;99222.03;;;10.74;100.00
15750;BME280;7976;52.526;13.326;2023-04-01T00:41:10;99215.75;;;10.77;100.00
15750;BME280;7976;52.526;13.326;2023-04-01T00:43:40;99226.22;;;10.77;100.00
15750;BME280;7976;52.526;13.326;2023-04-01T00:46:07;99228.78;;;10.78;100.00
15750;BME280;7976;52.526;13.326;2023-04-01T00:48:38;99235.78;;;10.78;100.00
15750;BME280;7976;52.526;13.326;2023-04-01T00:51:11;99228.13;;;10.75;100.00
15750;BME280;7976;52.526;13.326;2023-04-01T00:53:45;99231.47;;;10.77;100.00
15750;BME280;7976;52.526;13.326;2023-04-01T00:56:17;99228.84;;;10.77;100.00
15750;BME280;7976;52.526;13.326;2023-04-01T00:58:50;99228.84;;;10.77;100.00
15750;BME280;7976;52.526;13.326;2023-04-01T01:01:20;99234.09;;;10.77;100.00
15750;BME280;7976;52.526;13.326;2023-04-01T01:03:48;99228.94;;;10.75;100.00
15750;BME280;7976;52.526;13.326;2023-04-01T01:06:36;99228.22;;;10.73;100.00
15750;BME280;7976;52.526;13.326;2023-04-01T01:09:19;99224.00;;;10.71;100.00
15750;BME280;7976;52.526;13.326;2023-04-01T01:12:01;99232.50;;;10.74;100.00
15750;BME280;7976;52.526;13.326;2023-04-01T01:14:44;99227.19;;;10.76;100.00
15750;BME280;7976;52.526;13.326;2023-04-01T01:17:33;99231.47;;;10.77;100.00
15750;BME280;7976;52.526;13.326;2023-04-01T01:20:32;99225.41;;;10.76;100.00
15750;BME280;7976;52.526;13.326;2023-04-01T01:26:44;99239.31;;;10.77;100.00
15750;BME280;7976;52.526;13.326;2023-04-01T01:29:39;99233.38;;;10.75;100.00
15750;BME280;7976;52.526;13.326;2023-04-01T01:32:21;99232.22;;;10.79;100.00
15750;BME280;7976;52.526;13.326;2023-04-01T01:35:07;99233.25;;;10.76;100.00
15750;BME280;7976;52.526;13.326;2023-04-01T01:37:39;99239.31;;;10.77;100.00
15750;BME280;7976;52.526;13.326;2023-04-01T01:40:10;99236.06;;;10.73;100.00
15750;BME280;7976;52.526;13.326;2023-04-01T01:42:42;99234.28;;;10.74;100.00
15750;BME280;7976;52.526;13.326;2023-04-01T01:45:14;99234.94;;;10.77;100.00
15750;BME280;7976;52.526;13.326;2023-04-01T01:47:46;99232.22;;;10.79;100.00
15750;BME280;7976;52.526;13.326;2023-04-01T01:50:18;99237.56;;;10.77;100.00
15750;BME280;7976;52.526;13.326;2023-04-01T01:52:46;99241.88;;;10.78;100.00
15750;BME280;7976;52.526;13.326;2023-04-01T01:55:28;99240.16;;;10.77;100.00
15750;BME280;7976;52.526;13.326;2023-04-01T01:57:59;99248.13;;;10.76;100.00
15750;BME280;7976;52.526;13.326;2023-04-01T02:00:29;99245.41;;;10.77;100.00
15750;BME280;7976;52.526;13.326;2023-04-01T02:02:59;99244.38;;;10.80;100.00
15750;BME280;7976;52.526;13.326;2023-04-01T02:05:29;99244.53;;;10.77;100.00
15750;BME280;7976;52.526;13.326;2023-04-01T02:08:09;99242.22;;;10.72;100.00
15750;BME280;7976;52.526;13.326;2023-04-01T02:10:43;99244.19;;;10.69;100.00
15750;BME280;7976;52.526;13.326;2023-04-01T02:13:30;99247.00;;;10.66;100.00
15750;BME280;7976;52.526;13.326;2023-04-01T02:16:04;99248.50;;;10.70;100.00
15750;BME280;7976;52.526;13.326;2023-04-01T02:18:36;99239.91;;;10.68;100.00
15750;BME280;7976;52.526;13.326;2023-04-01T02:21:07;99245.88;;;10.70;100.00
15750;BME280;7976;52.526;13.326;2023-04-01T02:23:37;99246.81;;;10.69;100.00
15750;BME280;7976;52.526;13.326;2023-04-01T02:26:07;99243.28;;;10.70;100.00
15750;BME280;7976;52.526;13.326;2023-04-01T02:28:38;99244.94;;;10.71;100.00
15750;BME280;7976;52.526;13.326;2023-04-01T02:31:09;99250.94;;;10.73;100.00
15750;BME280;7976;52.526;13.326;2023-04-01T02:33:38;99243.06;;;10.73;100.00
15750;BME280;7976;52.526;13.326;2023-04-01T02:36:12;99252.41;;;10.77;100.00
15750;BME280;7976;52.526;13.326;2023-04-01T02:38:41;99251.69;;;10.75;100.00
15750;BME280;7976;52.526;13.326;2023-04-01T02:41:08;99258.19;;;10.82;100.00
15750;BME280;7976;52.526;13.326;2023-04-01T02:43:35;99258.19;;;10.82;100.00
15750;BME280;7976;52.526;13.326;2023-04-01T02:46:02;99259.69;;;10.86;100.00
15750;BME280;7976;52.526;13.326;2023-04-01T02:48:30;99254.66;;;10.83;100.00
15750;BME280;7976;52.526;13.326;2023-04-01T02:50:57;99258.38;;;10.79;100.00
15750;BME280;7976;52.526;13.326;2023-04-01T02:53:25;99264.75;;;10.75;100.00
15750;BME280;7976;52.526;13.326;2023-04-01T02:55:52;99268.50;;;10.71;100.00
15750;BME280;7976;52.526;13.326;2023-04-01T02:58:19;99262.31;;;10.72;100.00
15750;BME280;7976;52.526;13.326;2023-04-01T03:00:46;99272.78;;;10.72;100.00
15750;BME280;7976;52.526;13.326;2023-04-01T03:03:13;99268.50;;;10.71;100.00
15750;BME280;7976;52.526;13.326;2023-04-01T03:05:40;99273.53;;;10.74;100.00
15750;BME280;7976;52.526;13.326;2023-04-01T03:08:07;99270.72;;;10.77;100.00
15750;BME280;7976;52.526;13.326;2023-04-01T03:10:35;99271.47;;;10.79;100.00
15750;BME280;7976;52.526;13.326;2023-04-01T03:13:03;99270.44;;;10.81;100.00
15750;BME280;7976;52.526;13.326;2023-04-01T03:15:30;99267.84;;;10.81;100.00
15750;BME280;7976;52.526;13.326;2023-04-01T03:17:57;99275.59;;;10.83;100.00
15750;BME280;7976;52.526;13.326;2023-04-01T03:20:24;99273.81;;;10.83;100.00
15750;BME280;7976;52.526;13.326;2023-04-01T03:22:51;99269.59;;;10.81;100.00
15750;BME280;7976;52.526;13.326;2023-04-01T03:25:18;99274.94;;;10.79;100.00
15750;BME280;7976;52.526;13.326;2023-04-01T03:27:48;99276.78;;;10.77;99.99
15750;BME280;7976;52.526;13.326;2023-04-01T03:30:15;99278.56;;;10.77;100.00
15750;BME280;7976;52.526;13.326;2023-04-01T03:32:49;99278.50;;;10.78;100.00
15750;BME280;7976;52.526;13.326;2023-04-01T03:35:16;99280.34;;;10.76;99.91
15750;BME280;7976;52.526;13.326;2023-04-01T03:37:45;99284.75;;;10.76;100.00
15750;BME280;7976;52.526;13.326;2023-04-01T03:40:12;99284.09;;;10.72;100.00
15750;BME280;7976;52.526;13.326;2023-04-01T03:42:39;99280.63;;;10.72;100.00
15750;BME280;7976;52.526;13.326;2023-04-01T03:45:08;99288.31;;;10.75;100.00
15750;BME280;7976;52.526;13.326;2023-04-01T03:47:37;99295.97;;;10.78;100.00
15750;BME280;7976;52.526;13.326;2023-04-01T03:50:06;99297.63;;;10.79;100.00
15750;BME280;7976;52.526;13.326;2023-04-01T03:52:33;99292.50;;;10.77;100.00
15750;BME280;7976;52.526;13.326;2023-04-01T03:55:01;99300.44;;;10.76;99.90
15750;BME280;7976;52.526;13.326;2023-04-01T03:57:30;99298.78;;;10.75;99.88
15750;BME280;7976;52.526;13.326;2023-04-01T04:00:05;99302.50;;;10.71;99.95
15750;BME280;7976;52.526;13.326;2023-04-01T04:02:40;99301.75;;;10.69;99.86
15750;BME280;7976;52.526;13.326;2023-04-01T04:05:09;99307.72;;;10.71;100.00
15750;BME280;7976;52.526;13.326;2023-04-01T04:07:37;99312.00;;;10.72;100.00
15750;BME280;7976;52.526;13.326;2023-04-01T04:10:08;99311.84;;;10.75;100.00
15750;BME280;7976;52.526;13.326;2023-04-01T04:12:35;99314.28;;;10.78;99.97
15750;BME280;7976;52.526;13.326;2023-04-01T04:15:02;99319.31;;;10.81;100.00
15750;BME280;7976;52.526;13.326;2023-04-01T04:17:29;99315.75;;;10.82;99.75
15750;BME280;7976;52.526;13.326;2023-04-01T04:19:57;99319.31;;;10.81;99.68
15750;BME280;7976;52.526;13.326;2023-04-01T04:22:24;99321.19;;;10.79;99.99
15750;BME280;7976;52.526;13.326;2023-04-01T04:24:51;99322.31;;;10.75;99.57
15750;BME280;7976;52.526;13.326;2023-04-01T04:27:18;99330.31;;;10.72;99.84
15750;BME280;7976;52.526;13.326;2023-04-01T04:30:00;99321.84;;;10.68;100.00
15750;BME280;7976;52.526;13.326;2023-04-01T04:32:27;99322.78;;;10.67;99.86
15750;BME280;7976;52.526;13.326;2023-04-01T04:34:56;99321.56;;;10.73;100.00
15750;BME280;7976;52.526;13.326;2023-04-01T04:37:23;99325.75;;;10.75;100.00
15750;BME280;7976;52.526;13.326;2023-04-01T04:39:51;99333.50;;;10.77;100.00
15750;BME280;7976;52.526;13.326;2023-04-01T04:42:19;99335.22;;;10.78;99.88
15750;BME280;7976;52.526;13.326;2023-04-01T04:44:45;99335.22;;;10.78;100.00
15750;BME280;7976;52.526;13.326;2023-04-01T04:47:12;99339.50;;;10.79;99.91
15750;BME280;7976;52.526;13.326;2023-04-01T04:49:39;99342.13;;;10.79;99.96
15750;BME280;7976;52.526;13.326;2023-04-01T04:52:10;99340.44;;;10.78;99.81
15750;BME280;7976;52.526;13.326;2023-04-01T04:54:37;99338.84;;;10.75;99.94
15750;BME280;7976;52.526;13.326;2023-04-01T04:57:04;99339.78;;;10.74;100.00
15750;BME280;7976;52.526;13.326;2023-04-01T04:59:37;99343.25;;;10.75;100.00
15750;BME280;7976;52.526;13.326;2023-04-01T05:02:11;99338.75;;;10.77;100.00
15750;BME280;7976;52.526;13.326;2023-04-01T05:04:38;99339.41;;;10.80;100.00
15750;BME280;7976;52.526;13.326;2023-04-01T05:07:10;99346.53;;;10.78;100.00
15750;BME280;7976;52.526;13.326;2023-04-01T05:09:37;99342.13;;;10.79;100.00
15750;BME280;7976;52.526;13.326;2023-04-01T05:12:04;99345.69;;;10.78;100.00
15750;BME280;7976;52.526;13.326;2023-04-01T05:14:50;99352.56;;;10.79;100.00
15750;BME280;7976;52.526;13.326;2023-04-01T05:17:17;99349.16;;;10.78;100.00
15750;BME280;7976;52.526;13.326;2023-04-01T05:19:44;99351.91;;;10.75;100.00
15750;BME280;7976;52.526;13.326;2023-04-01T05:22:14;99354.44;;;10.77;100.00
15750;BME280;7976;52.526;13.326;2023-04-01T05:24:41;99351.81;;;10.77;100.00
15750;BME280;7976;52.526;13.326;2023-04-01T05:27:08;99358.94;;;10.75;100.00
15750;BME280;7976;52.526;13.326;2023-04-01T05:29:38;99354.44;;;10.77;100.00
15750;BME280;7976;52.526;13.326;2023-04-01T05:32:08;99357.81;;;10.79;100.00
15750;BME280;7976;52.526;13.326;2023-04-01T05:34:35;99365.47;;;10.82;100.00
15750;BME280;7976;52.526;13.326;2023-04-01T05:37:02;99361.94;;;10.83;100.00
15750;BME280;7976;52.526;13.326;2023-04-01T05:39:30;99363.59;;;10.84;100.00
15750;BME280;7976;52.526;13.326;2023-04-01T05:41:57;99358.47;;;10.82;100.00
15750;BME280;7976;52.526;13.326;2023-04-01T05:44:24;99368.19;;;10.80;100.00
15750;BME280;7976;52.526;13.326;2023-04-01T05:47:06;99374.38;;;10.79;100.00
15750;BME280;7976;52.526;13.326;2023-04-01T05:49:33;99374.47;;;10.78;100.00
15750;BME280;7976;52.526;13.326;2023-04-01T05:52:02;99371.66;;;10.81;100.00
15750;BME280;7976;52.526;13.326;2023-04-01T05:54:31;99375.03;;;10.83;100.00
15750;BME280;7976;52.526;13.326;2023-04-01T05:56:58;99373.88;;;10.87;100.00
15750;BME280;7976;52.526;13.326;2023-04-01T05:59:24;99379.06;;;10.88;100.00
15750;BME280;7976;52.526;13.326;2023-04-01T06:01:51;99380.63;;;10.91;100.00
15750;BME280;7976;52.526;13.326;2023-04-01T06:04:20;99384.91;;;10.92;100.00
15750;BME280;7976;52.526;13.326;2023-04-01T06:06:47;99381.56;;;10.90;100.00
15750;BME280;7976;52.526;13.326;2023-04-01T06:09:18;99383.44;;;10.88;100.00
15750;BME280;7976;52.526;13.326;2023-04-01T06:12:18;99386.81;;;10.90;100.00
15750;BME280;7976;52.526;13.326;2023-04-01T06:15:10;99395.22;;;10.95;100.00
15750;BME280;7976;52.526;13.326;2023-04-01T06:18:03;99391.66;;;10.96;100.00
15750;BME280;7976;52.526;13.326;2023-04-01T06:20:43;99396.69;;;10.99;100.00
15750;BME280;7976;52.526;13.326;2023-04-01T06:23:47;99398.31;;;11.01;100.00
15750;BME280;7976;52.526;13.326;2023-04-01T06:26:30;99401.75;;;11.02;100.00
15750;BME280;7976;52.526;13.326;2023-04-01T06:29:46;99409.53;;;11.03;100.00
15750;BME280;7976;52.526;13.326;2023-04-01T06:35:31;99411.50;;;11.00;100.00
15750;BME280;7976;52.526;13.326;2023-04-01T06:38:21;99417.66;;;10.99;100.00
15750;BME280;7976;52.526;13.326;2023-04-01T06:41:09;99414.13;;;11.00;100.00
15750;BME280;7976;52.526;13.326;2023-04-01T06:43:57;99414.84;;;11.02;100.00
15750;BME280;7976;52.526;13.326;2023-04-01T06:46:50;99422.69;;;11.02;100.00
15750;BME280;7976;52.526;13.326;2023-04-01T06:49:53;99422.53;;;11.05;100.00
15750;BME280;7976;52.526;13.326;2023-04-01T06:53:11;99419.81;;;11.06;100.00
15750;BME280;7976;52.526;13.326;2023-04-01T06:56:00;99422.44;;;11.06;100.00
15750;BME280;7976;52.526;13.326;2023-04-01T06:59:01;99426.63;;;11.09;100.00
15750;BME280;7976;52.526;13.326;2023-04-01T07:01:34;99430.75;;;11.13;100.00
15750;BME280;7976;52.526;13.326;2023-04-01T07:04:11;99425.31;;;11.16;100.00
15750;BME280;7976;52.526;13.326;2023-04-01T07:06:47;99435.78;;;11.16;100.00
15750;BME280;7976;52.526;13.326;2023-04-01T07:09:20;99429.72;;;11.15;100.00
15750;BME280;7976;52.526;13.326;2023-04-01T07:12:19;99438.41;;;11.16;100.00
15750;BME280;7976;52.526;13.326;2023-04-01T07:15:18;99434.13;;;11.15;100.00
15750;BME280;7976;52.526;13.326;2023-04-01T07:17:52;99432.63;;;11.11;100.00
15750;BME280;7976;52.526;13.326;2023-04-01T07:20:26;99431.50;;;11.15;100.00
15750;BME280;7976;52.526;13.326;2023-04-01T07:22:59;99442.25;;;11.24;100.00
15750;BME280;7976;52.526;13.326;2023-04-01T07:25:46;99442.72;;;11.31;100.00
15750;BME280;7976;52.526;13.326;2023-04-01T07:28:37;99442.44;;;11.35;100.00
15750;BME280;7976;52.526;13.326;2023-04-01T07:31:28;99448.31;;;11.39;100.00
15750;BME280;7976;52.526;13.326;2023-04-01T07:34:04;99449.06;;;11.41;100.00
15750;BME280;7976;52.526;13.326;2023-04-01T07:36:42;99449.63;;;11.46;100.00
15750;BME280;7976;52.526;13.326;2023-04-01T07:39:27;99457.09;;;11.52;100.00
15750;BME280;7976;52.526;13.326;2023-04-01T07:42:28;99454.97;;;11.59;100.00
15750;BME280;7976;52.526;13.326;2023-04-01T07:45:11;99450.31;;;11.64;100.00
15750;BME280;7976;52.526;13.326;2023-04-01T07:48:00;99458.81;;;11.67;100.00
15750;BME280;7976;52.526;13.326;2023-04-01T07:50:41;99455.06;;;11.71;100.00
15750;BME280;7976;52.526;13.326;2023-04-01T07:53:24;99462.53;;;11.77;100.00
15750;BME280;7976;52.526;13.326;2023-04-01T07:56:05;99457.47;;;11.88;100.00
15750;BME280;7976;52.526;13.326;2023-04-01T07:58:50;99460.44;;;11.96;100.00
15750;BME280;7976;52.526;13.326;2023-04-01T08:02:13;99462.88;;;11.99;100.00
15750;BME280;7976;52.526;13.326;2023-04-01T08:04:58;99468.75;;;12.03;99.98
15750;BME280;7976;52.526;13.326;2023-04-01T08:07:36;99468.84;;;12.01;99.85
15750;BME280;7976;52.526;13.326;2023-04-01T08:10:37;99472.59;;;11.97;99.48
15750;BME280;7976;52.526;13.326;2023-04-01T08:13:35;99475.28;;;11.83;99.25
15750;BME280;7976;52.526;13.326;2023-04-01T08:16:32;99478.25;;;11.77;99.54
15750;BME280;7976;52.526;13.326;2023-04-01T08:19:15;99479.41;;;11.73;99.22
15750;BME280;7976;52.526;13.326;2023-04-01T08:21:50;99480.25;;;11.74;99.68
15750;BME280;7976;52.526;13.326;2023-04-01T08:24:25;99477.63;;;11.74;99.54
15750;BME280;7976;52.526;13.326;2023-04-01T08:26:59;99487.81;;;11.78;99.33
15750;BME280;7976;52.526;13.326;2023-04-01T08:29:38;99477.13;;;11.81;99.17
15750;BME280;7976;52.526;13.326;2023-04-01T08:32:14;99481.06;;;11.74;98.76
15750;BME280;7976;52.526;13.326;2023-04-01T08:34:50;99497.94;;;11.70;98.78
15750;BME280;7976;52.526;13.326;2023-04-01T08:37:35;99497.53;;;11.62;98.68
15750;BME280;7976;52.526;13.326;2023-04-01T08:40:32;99510.44;;;11.51;98.18
15750;BME280;7976;52.526;13.326;2023-04-01T08:43:13;99507.91;;;11.35;97.65
15750;BME280;7976;52.526;13.326;2023-04-01T08:45:56;99507.06;;;11.21;97.05
15750;BME280;7976;52.526;13.326;2023-04-01T08:49:01;99504.50;;;11.05;96.76
15750;BME280;7976;52.526;13.326;2023-04-01T08:52:18;99505.06;;;10.96;96.72
15750;BME280;7976;52.526;13.326;2023-04-01T08:55:22;99510.53;;;10.92;96.55
15750;BME280;7976;52.526;13.326;2023-04-01T08:58:50;99508.03;;;10.90;96.84
15750;BME280;7976;52.526;13.326;2023-04-01T09:01:46;99508.22;;;10.87;96.57
15750;BME280;7976;52.526;13.326;2023-04-01T09:08:04;99513.34;;;10.89;96.46
15750;BME280;7976;52.526;13.326;2023-04-01T09:10:57;99515.78;;;10.92;96.64
15750;BME280;7976;52.526;13.326;2023-04-01T09:14:30;99520.09;;;10.93;96.66
15750;BME280;7976;52.526;13.326;2023-04-01T09:17:45;99520.75;;;10.96;96.84
15750;BME280;7976;52.526;13.326;2023-04-01T09:20:42;99528.72;;;11.09;96.96
15750;BME280;7976;52.526;13.326;2023-04-01T09:23:40;99529.56;;;11.09;96.53
15750;BME280;7976;52.526;13.326;2023-04-01T09:26:48;99535.00;;;11.06;96.64
15750;BME280;7976;52.526;13.326;2023-04-01T09:30:02;99536.19;;;11.01;96.34
15750;BME280;7976;52.526;13.326;2023-04-01T09:33:04;99541.63;;;10.98;96.28
15750;BME280;7976;52.526;13.326;2023-04-01T09:35:46;99554.88;;;10.95;95.72
15750;BME280;7976;52.526;13.326;2023-04-01T09:38:29;99552.59;;;10.89;95.07
15750;BME280;7976;52.526;13.326;2023-04-01T09:40:59;99556.75;;;10.93;95.27
15750;BME280;7976;52.526;13.326;2023-04-01T09:44:00;99553.47;;;10.89;94.54
15750;BME280;7976;52.526;13.326;2023-04-01T09:47:01;99564.44;;;10.80;94.52
15750;BME280;7976;52.526;13.326;2023-04-01T09:49:56;99570.22;;;10.71;94.06
15750;BME280;7976;52.526;13.326;2023-04-01T09:52:35;99574.09;;;10.64;94.12
15750;BME280;7976;52.526;13.326;2023-04-01T09:56:01;99574.19;;;10.63;93.96
15750;BME280;7976;52.526;13.326;2023-04-01T09:59:12;99574.47;;;10.58;93.91
15750;BME280;7976;52.526;13.326;2023-04-01T10:10:03;99577.66;;;10.63;94.42
15750;BME280;7976;52.526;13.326;2023-04-01T10:16:49;99597.25;;;10.56;94.15
15750;BME280;7976;52.526;13.326;2023-04-01T10:20:02;99604.22;;;10.56;94.78
15750;BME280;7976;52.526;13.326;2023-04-01T10:23:30;99590.56;;;10.51;94.98
15750;BME280;7976;52.526;13.326;2023-04-01T10:29:58;99604.50;;;10.36;95.26
15750;BME280;7976;52.526;13.326;2023-04-01T10:39:45;99618.03;;;10.27;96.14
15750;BME280;7976;52.526;13.326;2023-04-01T10:43:19;99618.03;;;10.27;96.01
15750;BME280;7976;52.526;13.326;2023-04-01T10:46:39;99621.50;;;10.27;96.41
15750;BME280;7976;52.526;13.326;2023-04-01T10:50:25;99621.78;;;10.23;96.21
15750;BME280;7976;52.526;13.326;2023-04-01T10:53:34;99623.38;;;10.09;96.34
15750;BME280;7976;52.526;13.326;2023-04-01T10:56:44;99632.72;;;9.96;96.25
15750;BME280;7976;52.526;13.326;2023-04-01T11:03:46;99622.34;;;9.95;96.59
15750;BME280;7976;52.526;13.326;2023-04-01T11:07:03;99626.09;;;10.06;96.84
15750;BME280;7976;52.526;13.326;2023-04-01T11:13:26;99633.91;;;10.06;96.58
15750;BME280;7976;52.526;13.326;2023-04-01T11:17:04;99639.88;;;9.93;96.31
15750;BME280;7976;52.526;13.326;2023-04-01T11:20:10;99638.44;;;9.87;96.42
15750;BME280;7976;52.526;13.326;2023-04-01T11:22:58;99648.91;;;9.87;96.50
15750;BME280;7976;52.526;13.326;2023-04-01T11:26:01;99645.19;;;9.91;96.91
15750;BME280;7976;52.526;13.326;2023-04-01T11:29:18;99653.78;;;9.93;97.12
15750;BME280;7976;52.526;13.326;2023-04-01T11:32:03;99654.81;;;9.91;97.06
15750;BME280;7976;52.526;13.326;2023-04-01T11:34:57;99646.88;;;9.92;97.08
15750;BME280;7976;52.526;13.326;2023-04-01T11:37:37;99661.47;;;9.96;97.34
15750;BME280;7976;52.526;13.326;2023-04-01T11:40:38;99658.84;;;9.96;97.45
15750;BME280;7976;52.526;13.326;2023-04-01T11:43:37;99671.31;;;9.91;97.38
15750;BME280;7976;52.526;13.326;2023-04-01T11:46:44;99671.66;;;9.85;97.57
15750;BME280;7976;52.526;13.326;2023-04-01T11:49:47;99681.63;;;9.94;97.71
15750;BME280;7976;52.526;13.326;2023-04-01T11:53:28;99683.22;;;9.97;97.82
15750;BME280;7976;52.526;13.326;2023-04-01T11:56:11;99680.16;;;9.89;97.14
15750;BME280;7976;52.526;13.326;2023-04-01T12:02:03;99692.78;;;9.81;96.86
15750;BME280;7976;52.526;13.326;2023-04-01T12:04:54;99694.19;;;9.71;97.32
15750;BME280;7976;52.526;13.326;2023-04-01T12:07:42;99697.94;;;9.65;97.32
15750;BME280;7976;52.526;13.326;2023-04-01T12:10:18;99708.31;;;9.67;97.58
15750;BME280;7976;52.526;13.326;2023-04-01T12:12:59;99712.91;;;9.62;97.51
15750;BME280;7976;52.526;13.326;2023-04-01T12:15:59;99710.22;;;9.63;98.24
15750;BME280;7976;52.526;13.326;2023-04-01T12:18:38;99711.78;;;9.67;98.18
15750;BME280;7976;52.526;13.326;2023-04-01T12:21:21;99707.25;;;9.71;98.34
15750;BME280;7976;52.526;13.326;2023-04-01T12:27:29;99732.88;;;9.63;97.39
15750;BME280;7976;52.526;13.326;2023-04-01T12:30:17;99729.59;;;9.59;97.28
15750;BME280;7976;52.526;13.326;2023-04-01T12:33:11;99736.50;;;9.60;96.84
15750;BME280;7976;52.526;13.326;2023-04-01T12:35:53;99724.03;;;9.48;96.72
15750;BME280;7976;52.526;13.326;2023-04-01T12:38:36;99735.34;;;9.49;96.46
15750;BME280;7976;52.526;13.326;2023-04-01T12:41:14;99734.63;;;9.45;96.59
15750;BME280;7976;52.526;13.326;2023-04-01T12:44:33;99749.38;;;9.46;96.24
15750;BME280;7976;52.526;13.326;2023-04-01T12:51:11;99742.72;;;9.41;96.54
15750;BME280;7976;52.526;13.326;2023-04-01T12:54:12;99748.00;;;9.39;96.52
15750;BME280;7976;52.526;13.326;2023-04-01T12:56:56;99754.53;;;9.31;96.75
15750;BME280;7976;52.526;13.326;2023-04-01T12:59:55;99763.47;;;9.25;96.68
15750;BME280;7976;52.526;13.326;2023-04-01T13:02:39;99761.81;;;9.24;96.65
15750;BME280;7976;52.526;13.326;2023-04-01T13:05:34;99769.66;;;9.23;96.61
15750;BME280;7976;52.526;13.326;2023-04-01T13:08:26;99768.38;;;9.14;96.54
15750;BME280;7976;52.526;13.326;2023-04-01T13:11:09;99776.41;;;9.10;96.93
15750;BME280;7976;52.526;13.326;2023-04-01T13:14:11;99778.44;;;9.03;97.24
15750;BME280;7976;52.526;13.326;2023-04-01T13:16:46;99783.97;;;8.97;97.09
15750;BME280;7976;52.526;13.326;2023-04-01T13:19:22;99779.88;;;8.92;96.67
15750;BME280;7976;52.526;13.326;2023-04-01T13:21:58;99787.13;;;8.85;96.90
15750;BME280;7976;52.526;13.326;2023-04-01T13:24:50;99786.19;;;8.86;97.15
15750;BME280;7976;52.526;13.326;2023-04-01T13:27:25;99789.38;;;8.93;97.37
15750;BME280;7976;52.526;13.326;2023-04-01T13:30:18;99805.53;;;9.01;97.56
15750;BME280;7976;52.526;13.326;2023-04-01T13:32:58;99804.84;;;8.97;97.11
15750;BME280;7976;52.526;13.326;2023-04-01T13:35:40;99804.75;;;8.99;97.08
15750;BME280;7976;52.526;13.326;2023-04-01T13:38:43;99809.13;;;8.98;97.18
15750;BME280;7976;52.526;13.326;2023-04-01T13:41:32;99821.38;;;8.96;96.93
15750;BME280;7976;52.526;13.326;2023-04-01T13:44:12;99815.28;;;8.97;97.12
15750;BME280;7976;52.526;13.326;2023-04-01T13:47:11;99815.34;;;8.96;96.90
15750;BME280;7976;52.526;13.326;2023-04-01T13:50:07;99818.03;;;8.94;96.85
15750;BME280;7976;52.526;13.326;2023-04-01T13:53:16;99824.94;;;8.95;96.71
15750;BME280;7976;52.526;13.326;2023-04-01T13:55:57;99824.16;;;8.93;96.71
15750;BME280;7976;52.526;13.326;2023-04-01T14:01:42;99829.78;;;8.84;96.39
15750;BME280;7976;52.526;13.326;2023-04-01T14:04:49;99840.97;;;8.86;96.41
15750;BME280;7976;52.526;13.326;2023-04-01T14:07:46;99840.34;;;8.81;96.04
15750;BME280;7976;52.526;13.326;2023-04-01T14:10:31;99829.00;;;8.82;96.57
15750;BME280;7976;52.526;13.326;2023-04-01T14:13:13;99846.00;;;8.91;96.62
15750;BME280;7976;52.526;13.326;2023-04-01T14:16:03;99849.34;;;8.94;96.44
15750;BME280;7976;52.526;13.326;2023-04-01T14:18:55;99853.91;;;8.89;96.37
15750;BME280;7976;52.526;13.326;2023-04-01T14:21:34;99855.91;;;8.82;96.52
15750;BME280;7976;52.526;13.326;2023-04-01T14:24:24;99855.28;;;8.77;96.48
15750;BME280;7976;52.526;13.326;2023-04-01T14:27:21;99859.09;;;8.70;96.45
15750;BME280;7976;52.526;13.326;2023-04-01T14:30:35;99876.63;;;8.67;96.71
15750;BME280;7976;52.526;13.326;2023-04-01T14:33:23;99873.31;;;8.63;96.56
15750;BME280;7976;52.526;13.326;2023-04-01T14:36:18;99875.25;;;8.58;96.56
15750;BME280;7976;52.526;13.326;2023-04-01T14:39:00;99878.91;;;8.54;96.54
15750;BME280;7976;52.526;13.326;2023-04-01T14:41:46;99877.44;;;8.49;96.35
15750;BME280;7976;52.526;13.326;2023-04-01T14:44:56;99881.84;;;8.47;96.09
15750;BME280;7976;52.526;13.326;2023-04-01T14:47:42;99885.28;;;8.47;96.03
15750;BME280;7976;52.526;13.326;2023-04-01T14:50:17;99879.19;;;8.48;95.87
15750;BME280;7976;52.526;13.326;2023-04-01T14:53:11;99885.44;;;8.44;95.79
15750;BME280;7976;52.526;13.326;2023-04-01T14:55:50;99891.69;;;8.40;95.50
15750;BME280;7976;52.526;13.326;2023-04-01T14:58:19;99898.66;;;8.40;95.52
15750;BME280;7976;52.526;13.326;2023-04-01T15:00:58;99897.75;;;8.41;95.79
15750;BME280;7976;52.526;13.326;2023-04-01T15:03:32;99903.75;;;8.43;95.28
15750;BME280;7976;52.526;13.326;2023-04-01T15:06:38;99903.09;;;8.38;95.04
15750;BME280;7976;52.526;13.326;2023-04-01T15:09:20;99905.63;;;8.39;95.33
15750;BME280;7976;52.526;13.326;2023-04-01T15:12:06;99915.09;;;8.42;95.30